createdAt,value
2023-04-03T00:01:25.829Z,5.70
2023-04-03T00:03:52.905Z,5.70
2023-04-03T00:06:20.142Z,5.70
2023-04-03T00:08:47.318Z,5.70
2023-04-03T00:11:14.277Z,5.60
2023-04-03T00:13:41.353Z,5.60
2023-04-03T00:16:08.828Z,5.60
2023-04-03T00:18:36.125Z,5.60
2023-04-03T00:21:03.212Z,5.60
2023-04-03T00:23:30.308Z,5.60
2023-04-03T00:25:57.239Z,5.60
2023-04-03T00:28:24.223Z,5.50
2023-04-03T00:30:51.278Z,5.50
2023-04-03T00:33:18.400Z,5.50
2023-04-03T00:35:45.410Z,5.50
2023-04-03T00:38:13.708Z,5.50
2023-04-03T00:40:43.290Z,5.50
2023-04-03T00:43:14.618Z,5.40
2023-04-03T00:45:43.652Z,5.40
2023-04-03T00:48:19.452Z,5.40
2023-04-03T00:50:46.524Z,5.40
2023-04-03T00:53:19.320Z,5.30
2023-04-03T00:55:47.841Z,5.30
2023-04-03T00:58:15.445Z,5.30
2023-04-03T01:00:46.204Z,5.30
2023-04-03T01:03:13.182Z,5.30
2023-04-03T01:05:41.473Z,5.30
2023-04-03T01:08:08.580Z,5.20
2023-04-03T01:10:35.852Z,5.20
2023-04-03T01:13:17.868Z,5.20
2023-04-03T01:15:44.769Z,5.20
2023-04-03T01:18:12.303Z,5.20
2023-04-03T01:20:51.980Z,5.10
2023-04-03T01:23:24.804Z,5.10
2023-04-03T01:25:56.114Z,5.10
2023-04-03T01:28:28.314Z,5.10
2023-04-03T01:31:07.753Z,5.10
2023-04-03T01:33:36.582Z,5.00
2023-04-03T01:36:04.016Z,5.00
2023-04-03T01:38:31.366Z,5.00
2023-04-03T01:40:58.400Z,5.00
2023-04-03T01:43:25.838Z,4.90
2023-04-03T01:45:55.481Z,4.90
2023-04-03T01:48:22.621Z,4.90
2023-04-03T01:50:49.692Z,4.90
2023-04-03T01:53:16.796Z,4.80
2023-04-03T01:55:43.805Z,4.80
2023-04-03T01:58:10.999Z,4.80
2023-04-03T02:00:38.481Z,4.80
2023-04-03T02:03:05.571Z,4.70
2023-04-03T02:05:33.379Z,4.70
2023-04-03T02:08:00.300Z,4.70
2023-04-03T02:10:27.242Z,4.70
2023-04-03T02:12:54.195Z,4.70
2023-04-03T02:15:22.980Z,4.70
2023-04-03T02:17:49.998Z,4.60
2023-04-03T02:20:17.088Z,4.60
2023-04-03T02:22:44.960Z,4.60
2023-04-03T02:25:12.024Z,4.60
2023-04-03T02:27:38.900Z,4.60
2023-04-03T02:30:06.414Z,4.60
2023-04-03T02:32:33.691Z,4.50
2023-04-03T02:35:01.488Z,4.50
2023-04-03T02:37:28.862Z,4.50
2023-04-03T02:39:56.691Z,4.50
2023-04-03T02:42:24.102Z,4.50
2023-04-03T02:44:52.029Z,4.50
2023-04-03T02:47:19.125Z,4.40
2023-04-03T02:49:46.956Z,4.40
2023-04-03T02:52:14.475Z,4.40
2023-04-03T02:54:41.771Z,4.40
2023-04-03T02:57:11.529Z,4.40
2023-04-03T02:59:41.689Z,4.40
2023-04-03T03:02:10.816Z,4.30
2023-04-03T03:04:37.905Z,4.30
2023-04-03T03:07:04.907Z,4.30
2023-04-03T03:09:33.005Z,4.30
2023-04-03T03:11:59.930Z,4.30
2023-04-03T03:14:26.961Z,4.30
2023-04-03T03:16:53.959Z,4.20
2023-04-03T03:19:21.154Z,4.20
2023-04-03T03:21:48.269Z,4.20
2023-04-03T03:24:16.901Z,4.20
2023-04-03T03:26:44.105Z,4.10
2023-04-03T03:29:11.104Z,4.10
2023-04-03T03:31:38.330Z,4.10
2023-04-03T03:34:05.398Z,4.10
2023-04-03T03:36:32.870Z,4.00
2023-04-03T03:38:59.885Z,4.00
2023-04-03T03:41:27.229Z,4.00
2023-04-03T03:43:54.202Z,4.00
2023-04-03T03:46:21.440Z,3.90
2023-04-03T03:48:48.471Z,3.90
2023-04-03T03:51:16.352Z,3.90
2023-04-03T03:53:43.456Z,3.90
2023-04-03T03:56:14.468Z,3.80
2023-04-03T03:58:42.521Z,3.80
2023-04-03T04:01:09.580Z,3.80
2023-04-03T04:03:42.390Z,3.80
2023-04-03T04:06:12.352Z,3.80
2023-04-03T04:08:39.301Z,3.80
2023-04-03T04:11:08.878Z,3.70
2023-04-03T04:13:36.492Z,3.70
2023-04-03T04:16:04.288Z,3.70
2023-04-03T04:18:32.702Z,3.70
2023-04-03T04:20:59.684Z,3.70
2023-04-03T04:23:26.877Z,3.70
2023-04-03T04:25:54.086Z,3.60
2023-04-03T04:28:22.226Z,3.60
2023-04-03T04:30:52.285Z,3.60
2023-04-03T04:33:21.724Z,3.60
2023-04-03T04:35:49.696Z,3.60
2023-04-03T04:38:18.757Z,3.60
2023-04-03T04:40:45.692Z,3.60
2023-04-03T04:43:15.498Z,3.60
2023-04-03T04:45:44.435Z,3.60
2023-04-03T04:48:12.120Z,3.60
2023-04-03T04:50:39.561Z,3.50
2023-04-03T04:53:06.824Z,3.50
2023-04-03T04:55:33.775Z,3.50
2023-04-03T04:58:01.523Z,3.50
2023-04-03T05:00:29.056Z,3.50
2023-04-03T05:02:56.663Z,3.40
2023-04-03T05:05:24.339Z,3.40
2023-04-03T05:07:51.670Z,3.40
2023-04-03T05:10:18.763Z,3.40
2023-04-03T05:12:47.157Z,3.30
2023-04-03T05:15:14.555Z,3.30
2023-04-03T05:17:41.698Z,3.30
2023-04-03T05:20:12.455Z,3.30
2023-04-03T05:22:39.897Z,3.30
2023-04-03T05:25:09.569Z,3.20
2023-04-03T05:27:37.252Z,3.20
2023-04-03T05:30:05.379Z,3.20
2023-04-03T05:32:34.633Z,3.20
2023-04-03T05:35:31.200Z,3.20
2023-04-03T05:38:00.865Z,3.20
2023-04-03T05:40:27.889Z,3.20
2023-04-03T05:42:57.131Z,3.20
2023-04-03T05:45:26.220Z,3.20
2023-04-03T05:47:53.585Z,3.20
2023-04-03T05:50:20.624Z,3.20
2023-04-03T05:52:51.852Z,3.20
2023-04-03T05:55:18.793Z,3.20
2023-04-03T05:57:45.827Z,3.20
2023-04-03T06:00:16.885Z,3.20
2023-04-03T06:02:50.677Z,3.30
2023-04-03T06:05:22.170Z,3.20
2023-04-03T06:07:50.576Z,3.30
2023-04-03T06:10:18.642Z,3.30
2023-04-03T06:12:46.292Z,3.30
2023-04-03T06:15:13.200Z,3.30
2023-04-03T06:17:41.321Z,3.30
2023-04-03T06:20:09.053Z,3.30
2023-04-03T06:22:36.445Z,3.30
2023-04-03T06:25:03.416Z,3.30
2023-04-03T06:27:30.367Z,3.30
2023-04-03T06:29:57.249Z,3.30
2023-04-03T06:32:24.426Z,3.30
2023-04-03T06:34:51.845Z,3.30
2023-04-03T06:37:19.881Z,3.30
2023-04-03T06:39:47.053Z,3.40
2023-04-03T06:42:14.145Z,3.40
2023-04-03T06:44:52.029Z,3.40
2023-04-03T06:47:19.197Z,3.50
2023-04-03T06:49:46.235Z,3.50
2023-04-03T06:52:14.214Z,3.60
2023-04-03T06:54:41.718Z,3.60
2023-04-03T06:57:09.190Z,3.60
2023-04-03T06:59:36.456Z,3.70
2023-04-03T07:02:03.666Z,3.80
2023-04-03T07:04:30.978Z,3.80
2023-04-03T07:06:57.920Z,3.90
2023-04-03T07:09:24.728Z,3.90
2023-04-03T07:11:51.774Z,4.00
2023-04-03T07:14:18.702Z,4.00
2023-04-03T07:16:45.602Z,4.10
2023-04-03T07:19:12.848Z,4.10
2023-04-03T07:21:39.974Z,4.20
2023-04-03T07:24:07.520Z,4.20
2023-04-03T07:26:36.347Z,4.30
2023-04-03T07:29:03.695Z,4.40
2023-04-03T07:31:30.651Z,4.40
2023-04-03T07:33:57.540Z,4.50
2023-04-03T07:36:25.116Z,4.50
2023-04-03T07:38:52.563Z,4.60
2023-04-03T07:41:21.113Z,4.70
2023-04-03T07:43:48.158Z,4.80
2023-04-03T07:46:15.257Z,4.80
2023-04-03T07:48:42.281Z,4.90
2023-04-03T07:51:09.163Z,5.00
2023-04-03T07:53:36.049Z,5.10
2023-04-03T07:56:03.847Z,5.20
2023-04-03T07:58:31.322Z,5.30
2023-04-03T08:00:58.458Z,5.40
2023-04-03T08:03:25.474Z,5.50
2023-04-03T08:05:54.463Z,5.50
2023-04-03T08:08:23.018Z,5.60
2023-04-03T08:10:53.866Z,5.70
2023-04-03T08:13:21.209Z,5.70
2023-04-03T08:15:48.201Z,5.80
2023-04-03T08:18:15.822Z,5.80
2023-04-03T08:20:42.800Z,5.90
2023-04-03T08:23:09.976Z,5.90
2023-04-03T08:25:40.592Z,6.00
2023-04-03T08:28:07.861Z,6.00
2023-04-03T08:30:35.165Z,6.10
2023-04-03T08:33:02.668Z,6.20
2023-04-03T08:35:29.632Z,6.30
2023-04-03T08:37:57.447Z,6.40
2023-04-03T08:40:24.459Z,6.50
2023-04-03T08:42:51.344Z,6.60
2023-04-03T08:45:22.435Z,6.60
2023-04-03T08:47:58.480Z,6.70
2023-04-03T08:50:29.852Z,6.80
2023-04-03T08:52:58.480Z,6.90
2023-04-03T08:55:30.517Z,7.00
2023-04-03T08:58:07.978Z,7.10
2023-04-03T09:00:53.722Z,7.10
2023-04-03T09:03:21.952Z,7.20
2023-04-03T09:05:54.661Z,7.30
2023-04-03T09:08:27.067Z,7.40
2023-04-03T09:10:59.629Z,7.50
2023-04-03T09:13:41.190Z,7.60
2023-04-03T09:16:25.530Z,7.70
2023-04-03T09:18:58.182Z,7.90
2023-04-03T09:21:29.343Z,8.30
2023-04-03T09:23:59.199Z,8.70
2023-04-03T09:26:27.321Z,9.10
2023-04-03T09:28:56.529Z,9.40
2023-04-03T09:31:24.820Z,9.70
2023-04-03T09:33:58.050Z,10.00
2023-04-03T09:36:43.617Z,10.40
2023-04-03T09:39:17.893Z,10.70
2023-04-03T09:41:55.992Z,11.20
2023-04-03T09:44:24.449Z,11.70
2023-04-03T09:46:51.705Z,12.20
2023-04-03T09:49:19.054Z,12.50
2023-04-03T09:51:46.289Z,12.70
2023-04-03T09:54:28.292Z,12.80
2023-04-03T09:56:56.751Z,12.90
2023-04-03T09:59:23.893Z,13.10
2023-04-03T10:02:01.732Z,13.30
2023-04-03T10:04:38.616Z,13.60
2023-04-03T10:07:25.646Z,13.90
2023-04-03T10:09:56.564Z,14.20
2023-04-03T10:12:24.105Z,14.60
2023-04-03T10:14:53.977Z,15.10
2023-04-03T10:17:36.857Z,15.40
2023-04-03T10:20:07.548Z,15.80
2023-04-03T10:23:00.686Z,16.00
2023-04-03T10:25:41.299Z,16.20
2023-04-03T10:28:17.805Z,16.50
2023-04-03T10:30:47.614Z,16.90
2023-04-03T10:33:23.756Z,17.20
2023-04-03T10:36:05.253Z,17.60
2023-04-03T10:38:38.384Z,17.80
2023-04-03T10:41:28.362Z,18.10
2023-04-03T10:44:10.643Z,18.00
2023-04-03T10:46:54.533Z,18.20
2023-04-03T10:49:42.492Z,18.20
2023-04-03T10:52:11.416Z,18.40
2023-04-03T10:54:44.721Z,18.70
2023-04-03T10:57:13.819Z,18.90
2023-04-03T10:59:59.380Z,18.90
2023-04-03T11:02:30.829Z,19.00
2023-04-03T11:05:02.052Z,18.90
2023-04-03T11:07:32.737Z,19.00
2023-04-03T11:10:10.588Z,18.90
2023-04-03T11:12:42.586Z,19.10
2023-04-03T11:15:13.769Z,19.20
2023-04-03T11:17:45.299Z,19.30
2023-04-03T11:20:15.318Z,19.10
2023-04-03T11:22:43.056Z,18.90
2023-04-03T11:25:10.102Z,18.90
2023-04-03T11:27:43.356Z,19.00
2023-04-03T11:30:19.604Z,19.10
2023-04-03T11:32:46.624Z,19.10
2023-04-03T11:35:14.552Z,19.30
2023-04-03T11:37:49.421Z,19.40
2023-04-03T11:40:16.577Z,19.50
2023-04-03T11:42:44.152Z,19.50
2023-04-03T11:45:22.684Z,19.50
2023-04-03T11:47:51.132Z,19.50
2023-04-03T11:50:36.252Z,19.60
2023-04-03T11:53:09.478Z,19.50
2023-04-03T11:55:36.963Z,19.60
2023-04-03T11:58:06.319Z,19.50
2023-04-03T12:00:48.512Z,19.50
2023-04-03T12:03:27.928Z,19.30
2023-04-03T12:05:56.828Z,19.20
2023-04-03T12:08:31.534Z,19.10
2023-04-03T12:11:18.714Z,18.70
2023-04-03T12:13:57.643Z,18.50
2023-04-03T12:16:27.942Z,18.30
2023-04-03T12:18:57.763Z,18.20
2023-04-03T12:21:44.869Z,18.30
2023-04-03T12:24:12.201Z,18.30
2023-04-03T12:26:48.869Z,18.40
2023-04-03T12:29:16.665Z,18.60
2023-04-03T12:31:57.687Z,18.50
2023-04-03T12:34:40.213Z,18.50
2023-04-03T12:37:16.527Z,18.70
2023-04-03T12:39:46.708Z,18.70
2023-04-03T12:42:36.902Z,19.00
2023-04-03T12:45:11.601Z,19.10
2023-04-03T12:47:40.948Z,19.00
2023-04-03T12:50:37.251Z,18.80
2023-04-03T12:53:12.516Z,18.80
2023-04-03T12:55:39.732Z,18.80
2023-04-03T12:58:23.384Z,18.80
2023-04-03T13:01:04.684Z,18.80
2023-04-03T13:03:31.891Z,18.80
2023-04-03T13:06:00.514Z,18.80
2023-04-03T13:08:27.461Z,18.60
2023-04-03T13:10:57.054Z,18.60
2023-04-03T13:13:24.229Z,18.60
2023-04-03T13:15:52.622Z,18.70
2023-04-03T13:18:37.912Z,18.80
2023-04-03T13:21:06.838Z,18.90
2023-04-03T13:23:35.427Z,18.90
2023-04-03T13:26:04.598Z,19.00
2023-04-03T13:28:32.222Z,18.90
2023-04-03T13:30:59.004Z,18.70
2023-04-03T13:33:27.821Z,18.50
2023-04-03T13:36:04.045Z,18.20
2023-04-03T13:38:35.001Z,17.90
2023-04-03T13:41:05.408Z,17.60
2023-04-03T13:43:34.296Z,17.40
2023-04-03T13:46:13.429Z,17.20
2023-04-03T13:48:45.699Z,17.00
2023-04-03T13:51:12.562Z,16.90
2023-04-03T13:53:44.813Z,16.80
2023-04-03T13:56:20.309Z,16.60
2023-04-03T13:59:02.764Z,16.50
2023-04-03T14:01:45.412Z,16.30
2023-04-03T14:04:18.144Z,16.20
2023-04-03T14:06:45.263Z,16.00
2023-04-03T14:09:12.098Z,16.00
2023-04-03T14:11:39.177Z,15.90
2023-04-03T14:14:11.086Z,15.80
2023-04-03T14:16:39.401Z,15.70
2023-04-03T14:19:06.370Z,15.60
2023-04-03T14:21:33.474Z,15.50
2023-04-03T14:24:00.350Z,15.50
2023-04-03T14:26:30.142Z,15.50
2023-04-03T14:28:57.325Z,15.40
2023-04-03T14:31:24.821Z,15.50
2023-04-03T14:33:52.111Z,15.40
2023-04-03T14:36:21.879Z,15.50
2023-04-03T14:38:50.025Z,15.40
2023-04-03T14:41:18.981Z,15.40
2023-04-03T14:43:46.743Z,15.30
2023-04-03T14:46:35.170Z,15.30
2023-04-03T14:49:14.645Z,15.30
2023-04-03T14:51:41.533Z,15.30
2023-04-03T14:54:13.916Z,15.20
2023-04-03T14:56:40.909Z,15.10
2023-04-03T14:59:10.999Z,15.00
2023-04-03T15:01:37.943Z,15.00
2023-04-03T15:04:14.862Z,15.00
2023-04-03T15:06:42.365Z,15.00
2023-04-03T15:09:18.916Z,15.00
2023-04-03T15:11:45.777Z,14.90
2023-04-03T15:14:12.623Z,14.90
2023-04-03T15:16:39.518Z,14.80
2023-04-03T15:19:06.576Z,14.70
2023-04-03T15:21:33.421Z,14.70
2023-04-03T15:24:02.106Z,14.70
2023-04-03T15:26:29.240Z,14.50
2023-04-03T15:28:56.274Z,14.40
2023-04-03T15:31:23.264Z,14.30
2023-04-03T15:33:50.184Z,14.10
2023-04-03T15:36:29.635Z,14.00
2023-04-03T15:39:01.357Z,13.90
2023-04-03T15:41:28.180Z,13.90
2023-04-03T15:43:55.066Z,13.70
2023-04-03T15:46:22.013Z,13.70
2023-04-03T15:48:50.568Z,13.50
2023-04-03T15:51:17.453Z,13.40
2023-04-03T15:53:44.375Z,13.40
2023-04-03T15:56:12.875Z,13.30
2023-04-03T15:58:39.950Z,13.20
2023-04-03T16:01:06.878Z,13.10
2023-04-03T16:03:33.966Z,13.10
2023-04-03T16:06:01.838Z,13.10
2023-04-03T16:08:28.999Z,13.00
2023-04-03T16:10:55.957Z,12.90
2023-04-03T16:13:22.774Z,12.80
2023-04-03T16:15:50.477Z,12.80
2023-04-03T16:18:19.381Z,12.70
2023-04-03T16:20:46.288Z,12.60
2023-04-03T16:23:13.309Z,12.60
2023-04-03T16:25:40.803Z,12.50
2023-04-03T16:28:07.747Z,12.40
2023-04-03T16:30:34.683Z,12.40
2023-04-03T16:33:02.264Z,12.30
2023-04-03T16:35:29.600Z,12.30
2023-04-03T16:37:56.499Z,12.20
2023-04-03T16:40:23.547Z,12.20
2023-04-03T16:42:50.475Z,12.20
2023-04-03T16:45:17.426Z,12.10
2023-04-03T16:47:44.450Z,12.10
2023-04-03T16:50:11.840Z,12.00
2023-04-03T16:52:38.767Z,12.00
2023-04-03T16:55:06.099Z,11.90
2023-04-03T16:57:32.894Z,11.90
2023-04-03T16:59:59.786Z,11.90
2023-04-03T17:02:27.291Z,11.80
2023-04-03T17:04:54.718Z,11.80
2023-04-03T17:07:22.271Z,11.80
2023-04-03T17:09:49.649Z,11.80
2023-04-03T17:12:17.178Z,11.80
2023-04-03T17:14:44.306Z,11.70
2023-04-03T17:17:11.226Z,11.70
2023-04-03T17:19:38.662Z,11.70
2023-04-03T17:22:05.747Z,11.60
2023-04-03T17:24:33.438Z,11.60
2023-04-03T17:27:00.300Z,11.50
2023-04-03T17:29:27.217Z,11.50
2023-04-03T17:31:54.305Z,11.50
2023-04-03T17:34:21.704Z,11.50
2023-04-03T17:36:49.020Z,11.50
2023-04-03T17:39:16.130Z,11.40
2023-04-03T17:41:43.124Z,11.40
2023-04-03T17:44:10.029Z,11.40
2023-04-03T17:46:36.920Z,11.30
2023-04-03T17:49:04.688Z,11.30
2023-04-03T17:51:34.499Z,11.20
2023-04-03T17:54:01.887Z,11.20
2023-04-03T17:56:28.850Z,11.10
2023-04-03T17:58:56.724Z,11.10
2023-04-03T18:01:28.116Z,11.10
2023-04-03T18:03:56.343Z,11.10
2023-04-03T18:06:27.453Z,11.00
2023-04-03T18:08:55.837Z,11.00
2023-04-03T18:11:27.388Z,11.00
2023-04-03T18:13:55.156Z,10.90
2023-04-03T18:16:21.974Z,10.90
2023-04-03T18:18:54.028Z,10.90
2023-04-03T18:21:29.260Z,10.90
2023-04-03T18:23:56.719Z,10.80
2023-04-03T18:26:26.729Z,10.80
2023-04-03T18:28:59.192Z,10.80
2023-04-03T18:31:26.501Z,10.80
2023-04-03T18:33:54.920Z,10.70
2023-04-03T18:36:21.873Z,10.70
2023-04-03T18:38:48.876Z,10.70
2023-04-03T18:41:16.457Z,10.70
2023-04-03T18:43:43.652Z,10.70
2023-04-03T18:46:11.009Z,10.70
2023-04-03T18:48:41.252Z,10.70
2023-04-03T18:51:09.844Z,10.70
2023-04-03T18:53:36.666Z,10.60
2023-04-03T18:56:03.932Z,10.60
2023-04-03T18:58:31.632Z,10.50
2023-04-03T19:00:59.637Z,10.50
2023-04-03T19:03:27.329Z,10.50
2023-04-03T19:05:54.341Z,10.50
2023-04-03T19:08:21.247Z,10.50
2023-04-03T19:10:48.136Z,10.40
2023-04-03T19:13:15.063Z,10.40
2023-04-03T19:15:42.275Z,10.40
2023-04-03T19:18:09.135Z,10.40
2023-04-03T19:20:36.368Z,10.30
2023-04-03T19:23:03.218Z,10.30
2023-04-03T19:25:30.135Z,10.30
2023-04-03T19:27:57.119Z,10.30
2023-04-03T19:30:24.805Z,10.20
2023-04-03T19:32:51.800Z,10.20
2023-04-03T19:35:18.685Z,10.10
2023-04-03T19:37:48.942Z,10.10
2023-04-03T19:40:15.817Z,10.10
2023-04-03T19:42:43.058Z,10.10
2023-04-03T19:45:11.030Z,10.00
2023-04-03T19:47:38.061Z,10.00
2023-04-03T19:50:05.206Z,10.00
2023-04-03T19:52:32.107Z,10.00
2023-04-03T19:54:59.046Z,9.90
2023-04-03T19:57:27.059Z,9.90
2023-04-03T19:59:53.937Z,9.90
2023-04-03T20:02:21.504Z,9.80
2023-04-03T20:04:48.521Z,9.80
2023-04-03T20:07:15.481Z,9.80
2023-04-03T20:09:42.357Z,9.80
2023-04-03T20:12:10.833Z,9.70
2023-04-03T20:14:39.525Z,9.70
2023-04-03T20:17:06.497Z,9.60
2023-04-03T20:19:33.342Z,9.50
2023-04-03T20:22:00.835Z,9.50
2023-04-03T20:24:30.706Z,9.50
2023-04-03T20:26:58.630Z,9.40
2023-04-03T20:29:26.158Z,9.40
2023-04-03T20:31:53.873Z,9.40
2023-04-03T20:34:21.783Z,9.30
2023-04-03T20:36:50.135Z,9.30
2023-04-03T20:39:19.052Z,9.30
2023-04-03T20:41:46.331Z,9.30
2023-04-03T20:44:13.195Z,9.30
2023-04-03T20:46:52.147Z,9.20
2023-04-03T20:49:21.081Z,9.20
2023-04-03T20:51:48.229Z,9.20
2023-04-03T20:54:15.100Z,9.20
2023-04-03T20:56:42.193Z,9.10
2023-04-03T20:59:11.526Z,9.10
2023-04-03T21:01:38.620Z,9.10
2023-04-03T21:04:09.543Z,9.10
2023-04-03T21:06:55.625Z,9.00
2023-04-03T21:09:41.428Z,9.00
2023-04-03T21:12:27.521Z,9.00
2023-04-03T21:15:16.311Z,9.00
2023-04-03T21:17:58.779Z,8.90
2023-04-03T21:20:25.645Z,8.90
2023-04-03T21:22:52.460Z,8.80
2023-04-03T21:25:19.317Z,8.80
2023-04-03T21:27:46.378Z,8.80
2023-04-03T21:30:13.328Z,8.80
2023-04-03T21:32:40.525Z,8.70
2023-04-03T21:35:07.721Z,8.70
2023-04-03T21:37:35.166Z,8.70
2023-04-03T21:40:02.560Z,8.60
2023-04-03T21:42:29.433Z,8.60
2023-04-03T21:44:56.285Z,8.60
2023-04-03T21:47:23.903Z,8.60
2023-04-03T21:49:50.881Z,8.60
2023-04-03T21:52:17.864Z,8.50
2023-04-03T21:54:45.049Z,8.50
2023-04-03T21:57:12.030Z,8.50
2023-04-03T21:59:39.108Z,8.40
2023-04-03T22:02:06.245Z,8.40
2023-04-03T22:04:33.163Z,8.40
2023-04-03T22:07:00.047Z,8.40
2023-04-03T22:09:26.902Z,8.30
2023-04-03T22:11:53.803Z,8.20
2023-04-03T22:14:21.115Z,8.20
2023-04-03T22:16:48.363Z,8.10
2023-04-03T22:19:15.322Z,8.10
2023-04-03T22:21:43.572Z,8.10
2023-04-03T22:24:10.540Z,8.00
2023-04-03T22:26:38.575Z,8.00
2023-04-03T22:29:06.118Z,8.00
2023-04-03T22:31:33.018Z,7.90
2023-04-03T22:34:04.121Z,7.90
2023-04-03T22:36:31.064Z,7.80
2023-04-03T22:38:58.672Z,7.80
2023-04-03T22:41:25.782Z,7.80
2023-04-03T22:43:52.604Z,7.70
2023-04-03T22:46:20.272Z,7.70
2023-04-03T22:48:47.598Z,7.70
2023-04-03T22:51:14.453Z,7.60
2023-04-03T22:53:41.329Z,7.60
2023-04-03T22:56:08.815Z,7.50
2023-04-03T22:58:35.741Z,7.50
2023-04-03T23:01:10.019Z,7.40
2023-04-03T23:03:38.233Z,7.40
2023-04-03T23:06:06.257Z,7.30
2023-04-03T23:08:38.836Z,7.30
2023-04-03T23:11:09.756Z,7.20
2023-04-03T23:13:37.242Z,7.20
2023-04-03T23:16:04.645Z,7.10
2023-04-03T23:18:31.972Z,7.00
2023-04-03T23:20:59.237Z,7.00
2023-04-03T23:23:26.313Z,6.90
2023-04-03T23:25:57.480Z,6.80
2023-04-03T23:28:24.599Z,6.80
2023-04-03T23:31:01.637Z,6.70
2023-04-03T23:33:29.437Z,6.70
2023-04-03T23:35:57.127Z,6.60
2023-04-03T23:38:24.245Z,6.60
2023-04-03T23:40:51.783Z,6.60
2023-04-03T23:43:18.634Z,6.50
2023-04-03T23:45:45.772Z,6.50
2023-04-03T23:48:12.726Z,6.40
2023-04-03T23:50:39.798Z,6.40
2023-04-03T23:53:07.386Z,6.30
2023-04-03T23:55:34.311Z,6.30
2023-04-03T23:58:01.583Z,6.30
